Airfield :
LOGIN :

Register | Disclaimer

   EN    FR    IT 

 










Legend :    VFR   Marginal VFR   IFR   Intensive IFR   Very Intensive IFR
Visi :
Ceiling :
>= 8 km
>= 3000ft
5 to 8 km
1000 to 3000 ft
1500m to 5 km
500 to 1000 ft
800 to 1500m
200 to 500 ft
< 800m
< 200 ft
Symbols :   Thunderstorms  Fog  Heavy snow  Heavy precipitations  Wind > 20 kt
SIGMETs :     Misc.  Thunderstorms  Icing  Turbulence  Mountain Waves  Volcanic Ashes






- Airport Elevation : 183 ft
- IATA code : HAJ


EDDV - Hanover/Langenhagen Int.

CURRENT METAR :
  • 071020Z 29011KT 240V310 9999 FEW022 BKN038 07/02 Q1011 NOSIG

EXPIRED METARs :
  • 070950Z 29012KT 9999 FEW020 BKN035 07/02 Q1011 NOSIG
  • 070920Z 27011KT 240V300 9999 FEW016 BKN020 07/03 Q1011 NOSIG
  • 070850Z 29010KT 250V310 9999 -SHRA FEW014 BKN020 06/03 Q1010 NOSIG
  • 070820Z 28009KT 250V310 9999 FEW013 BKN028 06/03 Q1010 NOSIG
  • 070750Z 28008KT 240V310 9999 SCT013 BKN025 05/03 Q1009 NOSIG

TAF COR TAF EDDV
Valid from the 07 at 06:00 until the 08 at 06:00 UTC


070552Z 0706/0806 28006KT 9999 SCT030
BECMG 0706/0709 29011KT
TEMPO 0706/0708 BKN009
TEMPO 0708/0716 SHRA BKN020CB
TEMPO 0710/0717 30015G25KT
BECMG 0717/0719 27005KT
BECMG 0803/0806 21005KT



MET'MAP, your aeronautical weather chart ! - Copyright ORBIFLY December 2007 - Disclaimer

ORBIFLY MET'MAP TEAM :

Programming & Development : Alexandra Zaïnal
Concept & original design : Baudouin d'Aumeries
Assistance for programming : Marc-Olivier Méhu
Technical & hardware support : Manuel Goepfert

Contact : metmap@orbifly.com




SOURCES & CREDITS :

   NOAA